Time;durP1;ratioP1;P1;durP2;ratioP2;P2;SDS_P1;SDS_P2;PMS_P1;PMS_P2;Temp;Humidity;BMP_temperature;BMP_pressure;BME280_temperature;BME280_humidity;BME280_pressure;Samples;Min_cycle;Max_cycle;Signal;HPM_P1;HPM_P2
2022/10/18 00:02:40;;;;;;;18.50;10.27;;;;;;;;;;6054458;29;20044;-85
2022/10/18 00:05:41;;;;;;;22.50;10.25;;;;;;;;;;6043019;29;20047;-86
2022/10/18 00:08:43;;;;;;;16.15;10.05;;;;;;;;;;6030288;29;20052;-85
2022/10/18 00:11:45;;;;;;;22.13;10.20;;;;;;;;;;6043420;29;20081;-86
2022/10/18 00:14:50;;;;;;;20.27;10.05;;;;;;;;;;6038091;29;20048;-86
2022/10/18 00:17:51;;;;;;;20.55;9.65;;;;;;;;;;6041686;29;20055;-86
2022/10/18 00:21:03;;;;;;;14.55;8.77;;;;;;;;;;6042743;29;20057;-86
2022/10/18 00:24:05;;;;;;;16.85;9.38;;;;;;;;;;6046645;29;20061;-86
2022/10/18 00:27:07;;;;;;;17.53;9.43;;;;;;;;;;6038664;29;20161;-86
2022/10/18 00:30:09;;;;;;;22.45;9.07;;;;;;;;;;6020018;29;20569;-86
2022/10/18 00:33:11;;;;;;;19.90;9.25;;;;;;;;;;6048318;29;20064;-86
2022/10/18 00:36:13;;;;;;;17.33;8.85;;;;;;;;;;6039823;29;20076;-86
2022/10/18 00:39:17;;;;;;;13.88;9.25;;;;;;;;;;6044779;29;20188;-86
2022/10/18 00:42:21;;;;;;;18.00;8.95;;;;;;;;;;6036719;29;20056;-87
2022/10/18 00:45:25;;;;;;;20.52;9.55;;;;;;;;;;6042665;29;20263;-86
2022/10/18 00:48:27;;;;;;;17.00;9.13;;;;;;;;;;6043315;29;20060;-86
2022/10/18 00:51:40;;;;;;;16.38;9.80;;;;;;;;;;6041955;29;20060;-86
2022/10/18 00:54:45;;;;;;;21.58;9.38;;;;;;;;;;6060412;29;20056;-86
2022/10/18 00:57:47;;;;;;;15.77;9.40;;;;;;;;;;6041296;29;20449;-87
2022/10/18 01:00:49;;;;;;;15.75;9.43;;;;;;;;;;6034419;29;20065;-86
2022/10/18 01:03:52;;;;;;;17.88;9.15;;;;;;;;;;6044546;29;20049;-86
2022/10/18 01:07:00;;;;;;;;;;;;;;;;;;6044995;29;20045;-86
2022/10/18 01:10:13;;;;;;;16.70;9.35;;;;;;;;;;6046535;29;19931;-86
2022/10/18 01:13:40;;;;;;;16.77;8.57;;;;;;;;;;6026676;29;20045;-86
2022/10/18 01:16:57;;;;;;;16.40;9.35;;;;;;;;;;6048259;29;20048;-86
2022/10/18 01:20:08;;;;;;;22.35;9.88;;;;;;;;;;6047472;29;20064;-86
2022/10/18 01:23:38;;;;;;;14.82;8.55;;;;;;;;;;6060798;29;20108;-86
2022/10/18 01:27:21;;;;;;;19.55;9.43;;;;;;;;;;6026683;29;20041;-85
2022/10/18 01:30:50;;;;;;;17.05;8.77;;;;;;;;;;6065081;29;20055;-86
2022/10/18 01:34:05;;;;;;;18.95;9.65;;;;;;;;;;6038494;29;20527;-86
2022/10/18 01:37:10;;;;;;;16.83;9.52;;;;;;;;;;6036893;29;20053;-85
2022/10/18 01:40:16;;;;;;;18.70;8.88;;;;;;;;;;6062526;29;20045;-86
2022/10/18 01:43:20;;;;;;;22.17;11.18;;;;;;;;;;6048228;29;20176;-85
2022/10/18 01:46:24;;;;;;;16.83;9.70;;;;;;;;;;6046613;29;20048;-85
2022/10/18 01:49:26;;;;;;;18.80;9.35;;;;;;;;;;6060599;29;20056;-85
2022/10/18 01:52:29;;;;;;;16.70;9.80;;;;;;;;;;6048644;29;20048;-85
2022/10/18 01:55:53;;;;;;;14.15;8.75;;;;;;;;;;6019020;29;20504;-85
2022/10/18 01:59:01;;;;;;;15.43;8.85;;;;;;;;;;6046083;29;20049;-85
2022/10/18 02:02:27;;;;;;;15.77;9.20;;;;;;;;;;6047154;29;20045;-86
2022/10/18 02:05:48;;;;;;;21.20;9.02;;;;;;;;;;6047383;29;20045;-86
2022/10/18 02:08:59;;;;;;;20.40;9.15;;;;;;;;;;6048168;29;20158;-85
2022/10/18 02:12:02;;;;;;;15.18;8.82;;;;;;;;;;6042153;29;20048;-86
2022/10/18 02:15:06;;;;;;;15.77;8.38;;;;;;;;;;6027523;29;20053;-85
2022/10/18 02:18:14;;;;;;;14.10;9.38;;;;;;;;;;6062429;29;20052;-85
2022/10/18 02:21:18;;;;;;;15.40;8.75;;;;;;;;;;6030115;29;20061;-86
2022/10/18 02:24:24;;;;;;;19.85;8.82;;;;;;;;;;6063888;29;20180;-85
2022/10/18 02:27:26;;;;;;;19.75;9.52;;;;;;;;;;6064864;29;20048;-85
2022/10/18 02:31:06;;;;;;;16.33;9.20;;;;;;;;;;6032888;29;20520;-86
2022/10/18 02:34:34;;;;;;;19.48;9.15;;;;;;;;;;6034468;29;20060;-85
2022/10/18 02:37:38;;;;;;;17.63;8.40;;;;;;;;;;6045033;29;20056;-85
2022/10/18 02:40:40;;;;;;;14.93;8.73;;;;;;;;;;6067772;29;20117;-86
2022/10/18 02:43:42;;;;;;;17.23;9.70;;;;;;;;;;6069125;29;20040;-86
2022/10/18 02:46:44;;;;;;;13.68;9.05;;;;;;;;;;6045845;29;20066;-86
2022/10/18 02:49:46;;;;;;;14.32;8.57;;;;;;;;;;6043016;29;20053;-86
2022/10/18 02:52:48;;;;;;;14.77;8.57;;;;;;;;;;6045332;29;20588;-86
2022/10/18 02:55:49;;;;;;;18.23;8.93;;;;;;;;;;6043738;29;20571;-85
2022/10/18 02:58:51;;;;;;;13.68;8.75;;;;;;;;;;6041963;29;20058;-85
2022/10/18 03:01:53;;;;;;;14.15;8.95;;;;;;;;;;6046446;29;20408;-85
2022/10/18 03:04:54;;;;;;;15.85;8.88;;;;;;;;;;6060771;29;20409;-85
2022/10/18 03:07:57;;;;;;;15.18;8.80;;;;;;;;;;6045887;29;20048;-85
2022/10/18 03:10:58;;;;;;;18.27;8.88;;;;;;;;;;6036647;29;20064;-86
2022/10/18 03:14:00;;;;;;;14.75;8.57;;;;;;;;;;6058302;29;20754;-86
2022/10/18 03:17:02;;;;;;;15.10;8.05;;;;;;;;;;6037553;29;20067;-85
2022/10/18 03:20:04;;;;;;;15.75;8.18;;;;;;;;;;6041398;29;20074;-85
2022/10/18 03:23:06;;;;;;;12.18;8.07;;;;;;;;;;6036673;29;20084;-86
2022/10/18 03:26:08;;;;;;;14.95;8.77;;;;;;;;;;6039196;29;20048;-86
2022/10/18 03:29:10;;;;;;;16.50;8.57;;;;;;;;;;6035878;29;20060;-86
2022/10/18 03:32:12;;;;;;;14.52;7.82;;;;;;;;;;6022906;29;20048;-85
2022/10/18 03:35:14;;;;;;;13.13;8.30;;;;;;;;;;6041367;29;20131;-86
2022/10/18 03:38:19;;;;;;;15.13;8.80;;;;;;;;;;6026863;29;20095;-87
2022/10/18 03:41:21;;;;;;;14.43;8.80;;;;;;;;;;6047456;29;20064;-85
2022/10/18 03:44:23;;;;;;;15.23;8.48;;;;;;;;;;5997615;29;20048;-86
2022/10/18 03:47:24;;;;;;;17.15;9.07;;;;;;;;;;6033699;29;20052;-86
2022/10/18 03:50:26;;;;;;;19.90;8.80;;;;;;;;;;6058142;29;20547;-86
2022/10/18 03:53:28;;;;;;;16.08;9.30;;;;;;;;;;6043097;29;20142;-87
2022/10/18 03:56:30;;;;;;;16.85;9.10;;;;;;;;;;6042410;29;20119;-85
2022/10/18 03:59:31;;;;;;;15.00;9.35;;;;;;;;;;6029323;29;20119;-85
2022/10/18 04:02:33;;;;;;;16.17;9.57;;;;;;;;;;6055420;29;20054;-86
2022/10/18 04:05:35;;;;;;;15.70;8.65;;;;;;;;;;6043244;29;20061;-85
2022/10/18 04:08:37;;;;;;;16.08;8.85;;;;;;;;;;6041546;29;20517;-85
2022/10/18 04:11:39;;;;;;;13.75;8.55;;;;;;;;;;6030474;29;20067;-86
2022/10/18 04:14:41;;;;;;;14.88;8.45;;;;;;;;;;6042271;29;20064;-86
2022/10/18 04:17:43;;;;;;;15.68;8.82;;;;;;;;;;6043214;29;20044;-86
2022/10/18 04:20:44;;;;;;;14.73;8.95;;;;;;;;;;6035332;29;20196;-85
2022/10/18 04:23:47;;;;;;;16.13;9.82;;;;;;;;;;6024999;29;20061;-85
2022/10/18 04:26:50;;;;;;;15.05;9.20;;;;;;;;;;6058090;29;20045;-85
2022/10/18 04:29:52;;;;;;;14.88;9.57;;;;;;;;;;6056412;29;20044;-86
2022/10/18 04:32:53;;;;;;;15.45;8.00;;;;;;;;;;6032107;29;20052;-85
2022/10/18 04:35:57;;;;;;;12.43;8.30;;;;;;;;;;6045140;29;20192;-86
2022/10/18 04:38:59;;;;;;;16.17;10.02;;;;;;;;;;6029552;29;20169;-86
2022/10/18 04:42:04;;;;;;;19.65;10.20;;;;;;;;;;6039886;29;20048;-85
2022/10/18 04:45:06;;;;;;;14.52;8.80;;;;;;;;;;6030305;29;20044;-85
2022/10/18 04:48:08;;;;;;;14.10;8.77;;;;;;;;;;6048494;29;20496;-85
2022/10/18 04:51:10;;;;;;;12.80;8.32;;;;;;;;;;6037038;29;20719;-85
2022/10/18 04:54:11;;;;;;;13.05;8.35;;;;;;;;;;6049436;29;20514;-85
2022/10/18 04:57:13;;;;;;;14.30;8.02;;;;;;;;;;6046931;29;20131;-85
2022/10/18 05:00:15;;;;;;;11.65;8.77;;;;;;;;;;6047081;29;20044;-85
2022/10/18 05:03:17;;;;;;;14.43;8.43;;;;;;;;;;6027321;29;20056;-86
2022/10/18 05:06:20;;;;;;;13.13;9.50;;;;;;;;;;6046235;29;20053;-85
2022/10/18 05:09:23;;;;;;;11.38;8.00;;;;;;;;;;6041491;29;20208;-85
2022/10/18 05:12:25;;;;;;;10.85;7.50;;;;;;;;;;6037151;29;20056;-85
2022/10/18 05:15:27;;;;;;;9.90;7.68;;;;;;;;;;6046123;29;20120;-85
2022/10/18 05:18:29;;;;;;;14.32;7.28;;;;;;;;;;6043366;29;20053;-85
2022/10/18 05:21:31;;;;;;;11.48;7.80;;;;;;;;;;6061894;29;20226;-87
2022/10/18 05:24:32;;;;;;;14.23;8.00;;;;;;;;;;6032230;29;20041;-87
2022/10/18 05:27:35;;;;;;;15.07;8.05;;;;;;;;;;6045051;29;20044;-87
2022/10/18 05:30:38;;;;;;;14.23;8.38;;;;;;;;;;6019796;29;20063;-86
2022/10/18 05:33:39;;;;;;;;;;;;;;;;;;5995254;29;20059;-87
2022/10/18 05:36:41;;;;;;;13.70;7.82;;;;;;;;;;6027267;29;20018;-87
2022/10/18 05:39:45;;;;;;;15.23;8.18;;;;;;;;;;6045725;29;20103;-87
2022/10/18 05:42:50;;;;;;;12.88;8.77;;;;;;;;;;6038099;29;20038;-87
2022/10/18 05:45:52;;;;;;;12.07;7.85;;;;;;;;;;6013578;29;20048;-86
2022/10/18 05:48:54;;;;;;;13.48;8.93;;;;;;;;;;6036277;29;20185;-87
2022/10/18 05:51:56;;;;;;;11.85;8.02;;;;;;;;;;6057346;29;20522;-86
2022/10/18 05:55:00;;;;;;;12.82;8.23;;;;;;;;;;6041393;29;20064;-87
2022/10/18 05:58:02;;;;;;;14.73;8.05;;;;;;;;;;6026688;29;20097;-87
2022/10/18 06:01:05;;;;;;;14.75;8.60;;;;;;;;;;6042759;29;20048;-87
2022/10/18 06:04:09;;;;;;;16.08;9.13;;;;;;;;;;6011437;29;20131;-87
2022/10/18 06:07:14;;;;;;;18.77;10.40;;;;;;;;;;6041349;29;20132;-87
2022/10/18 06:10:16;;;;;;;16.17;10.07;;;;;;;;;;6053348;29;20072;-88
2022/10/18 06:13:18;;;;;;;16.83;9.75;;;;;;;;;;6041238;29;20049;-87
2022/10/18 06:16:21;;;;;;;16.65;9.70;;;;;;;;;;6024799;29;20088;-87
2022/10/18 06:19:23;;;;;;;;;;;;;;;;;;6063494;29;20057;-87
2022/10/18 06:22:24;;;;;;;16.95;8.40;;;;;;;;;;6051144;29;20395;-86
2022/10/18 06:25:26;;;;;;;15.18;8.05;;;;;;;;;;6044827;29;20064;-87
2022/10/18 06:28:29;;;;;;;13.80;8.48;;;;;;;;;;6046789;29;20061;-85
2022/10/18 06:31:30;;;;;;;15.73;8.45;;;;;;;;;;6063480;29;20509;-85
2022/10/18 06:34:33;;;;;;;19.35;12.75;;;;;;;;;;6063258;29;20524;-85
2022/10/18 06:37:35;;;;;;;17.80;10.32;;;;;;;;;;6047809;29;20044;-85
2022/10/18 06:40:37;;;;;;;16.15;9.82;;;;;;;;;;6047361;29;20059;-87
2022/10/18 06:43:39;;;;;;;15.18;9.15;;;;;;;;;;6036007;29;20049;-86
2022/10/18 06:46:41;;;;;;;14.90;8.93;;;;;;;;;;6042924;29;20142;-87
2022/10/18 06:49:42;;;;;;;16.25;8.27;;;;;;;;;;6043132;29;20452;-87
2022/10/18 06:52:46;;;;;;;15.40;9.02;;;;;;;;;;6029418;29;20049;-87
2022/10/18 06:55:48;;;;;;;15.65;8.25;;;;;;;;;;6033958;29;20051;-87
2022/10/18 06:58:50;;;;;;;13.60;8.98;;;;;;;;;;6051869;29;20053;-87
2022/10/18 07:01:52;;;;;;;15.60;8.73;;;;;;;;;;6050155;29;20041;-87
2022/10/18 07:04:54;;;;;;;12.25;8.13;;;;;;;;;;6051780;29;20048;-87
2022/10/18 07:07:56;;;;;;;12.93;7.93;;;;;;;;;;6051681;29;20062;-87
2022/10/18 07:10:58;;;;;;;12.13;6.85;;;;;;;;;;6051823;29;20576;-87
2022/10/18 07:14:02;;;;;;;10.02;6.95;;;;;;;;;;6051283;29;20051;-87
2022/10/18 07:17:04;;;;;;;10.15;6.65;;;;;;;;;;6050156;29;20464;-87
2022/10/18 07:20:06;;;;;;;11.25;6.57;;;;;;;;;;6027883;29;20049;-87
2022/10/18 07:23:10;;;;;;;9.55;6.18;;;;;;;;;;6050644;29;20037;-87
2022/10/18 07:26:16;;;;;;;8.50;6.18;;;;;;;;;;6051290;29;20048;-87
2022/10/18 07:29:18;;;;;;;12.88;7.97;;;;;;;;;;6050649;29;20055;-87
2022/10/18 07:32:20;;;;;;;9.90;7.25;;;;;;;;;;6065812;29;20048;-87
2022/10/18 07:35:24;;;;;;;12.10;8.43;;;;;;;;;;6050676;29;20049;-86
2022/10/18 07:38:28;;;;;;;12.73;8.35;;;;;;;;;;6051813;29;20542;-87
2022/10/18 07:41:32;;;;;;;14.18;8.48;;;;;;;;;;6047102;29;20040;-86
2022/10/18 07:44:34;;;;;;;12.68;8.07;;;;;;;;;;6064114;29;20496;-87
2022/10/18 07:47:36;;;;;;;12.30;8.23;;;;;;;;;;6057687;29;20508;-88
2022/10/18 07:50:38;;;;;;;15.13;9.00;;;;;;;;;;6049984;29;20116;-88
2022/10/18 07:53:41;;;;;;;14.25;9.65;;;;;;;;;;6057827;29;20044;-87
2022/10/18 07:56:43;;;;;;;12.90;8.10;;;;;;;;;;6065980;29;20045;-87
2022/10/18 07:59:47;;;;;;;13.13;7.90;;;;;;;;;;6050756;29;20040;-87
2022/10/18 08:02:55;;;;;;;10.18;7.00;;;;;;;;;;6017729;29;20045;-86
2022/10/18 08:05:57;;;;;;;13.70;10.38;;;;;;;;;;6052872;29;20104;-88
2022/10/18 08:08:59;;;;;;;13.52;8.95;;;;;;;;;;6013273;29;20045;-85
2022/10/18 08:12:00;;;;;;;15.10;7.80;;;;;;;;;;6026979;29;20064;-85
2022/10/18 08:15:03;;;;;;;10.77;7.13;;;;;;;;;;6043379;29;20052;-85
2022/10/18 08:18:05;;;;;;;9.55;4.75;;;;;;;;;;6060648;29;20633;-85
2022/10/18 08:21:09;;;;;;;6.55;4.30;;;;;;;;;;6050612;29;20066;-84
2022/10/18 08:24:11;;;;;;;9.40;5.97;;;;;;;;;;6048133;29;20052;-84
2022/10/18 08:27:12;;;;;;;11.90;6.28;;;;;;;;;;6046897;29;20041;-85
2022/10/18 08:30:16;;;;;;;8.05;5.60;;;;;;;;;;6065114;29;20770;-85
2022/10/18 08:33:18;;;;;;;6.65;5.05;;;;;;;;;;6046236;29;20048;-85
2022/10/18 08:36:19;;;;;;;5.22;3.83;;;;;;;;;;6048639;29;20049;-87
2022/10/18 08:39:21;;;;;;;3.65;2.40;;;;;;;;;;6064095;29;20057;-86
2022/10/18 08:43:04;;;;;;;5.38;2.58;;;;;;;;;;6046178;29;20331;-86
2022/10/18 08:46:11;;;;;;;2.95;2.38;;;;;;;;;;6049045;29;20053;-85
2022/10/18 08:49:44;;;;;;;3.63;2.20;;;;;;;;;;6062019;29;20048;-84
2022/10/18 08:52:53;;;;;;;3.67;2.17;;;;;;;;;;6003393;29;20040;-84
2022/10/18 08:56:14;;;;;;;2.70;2.13;;;;;;;;;;6049246;29;20052;-84
2022/10/18 08:59:16;;;;;;;1.70;1.30;;;;;;;;;;6036421;29;20512;-84
2022/10/18 09:02:42;;;;;;;1.40;1.30;;;;;;;;;;6043463;29;20056;-84
2022/10/18 09:05:52;;;;;;;3.60;1.67;;;;;;;;;;6046226;29;20089;-84
2022/10/18 09:09:13;;;;;;;1.67;1.58;;;;;;;;;;6046070;29;20082;-84
2022/10/18 09:12:43;;;;;;;3.05;1.60;;;;;;;;;;6061323;29;20048;-84
2022/10/18 09:15:53;;;;;;;3.00;1.48;;;;;;;;;;6065230;29;20047;-84
2022/10/18 09:19:10;;;;;;;4.38;1.70;;;;;;;;;;6068117;29;20534;-83
2022/10/18 09:22:15;;;;;;;2.53;1.20;;;;;;;;;;6054043;29;20044;-83
2022/10/18 09:25:39;;;;;;;2.55;1.30;;;;;;;;;;6051278;29;20059;-83
2022/10/18 09:29:08;;;;;;;4.15;1.30;;;;;;;;;;6052274;29;20056;-83
2022/10/18 09:32:16;;;;;;;6.15;2.60;;;;;;;;;;6047690;29;20079;-85
2022/10/18 09:35:30;;;;;;;13.70;3.13;;;;;;;;;;6047321;29;20072;-85
2022/10/18 09:38:40;;;;;;;7.10;2.85;;;;;;;;;;6074740;29;20048;-82
2022/10/18 09:42:25;;;;;;;3.30;1.60;;;;;;;;;;6060358;29;20053;-83
2022/10/18 09:45:36;;;;;;;3.35;1.58;;;;;;;;;;6074608;29;20056;-83
2022/10/18 09:48:47;;;;;;;4.70;1.80;;;;;;;;;;6059362;29;20098;-84
2022/10/18 09:51:51;;;;;;;10.30;2.55;;;;;;;;;;6057034;29;20128;-83
2022/10/18 09:54:56;;;;;;;8.63;2.25;;;;;;;;;;6061472;29;20044;-82
2022/10/18 09:58:00;;;;;;;5.32;1.88;;;;;;;;;;6042831;29;20431;-83
2022/10/18 10:01:02;;;;;;;8.90;1.80;;;;;;;;;;6070212;29;20220;-83
2022/10/18 10:04:04;;;;;;;5.97;2.28;;;;;;;;;;6068259;29;20055;-83
2022/10/18 10:07:15;;;;;;;9.98;2.20;;;;;;;;;;6066006;29;20151;-83
2022/10/18 10:10:28;;;;;;;5.85;1.70;;;;;;;;;;6068022;29;20123;-83
2022/10/18 10:13:30;;;;;;;;;;;;;;;;;;6039281;29;20048;-83
2022/10/18 10:16:31;;;;;;;7.30;1.90;;;;;;;;;;6065804;29;19923;-82
2022/10/18 10:19:55;;;;;;;6.88;1.88;;;;;;;;;;6065162;29;20112;-83
2022/10/18 10:23:06;;;;;;;7.15;1.48;;;;;;;;;;6053777;29;20116;-83
2022/10/18 10:26:29;;;;;;;6.45;1.77;;;;;;;;;;6060047;29;20076;-83
2022/10/18 10:29:47;;;;;;;6.05;1.90;;;;;;;;;;6050587;29;20049;-83
2022/10/18 10:32:53;;;;;;;4.82;1.42;;;;;;;;;;6064244;29;20672;-83
2022/10/18 10:35:59;;;;;;;2.80;1.23;;;;;;;;;;6060436;29;20064;-83
2022/10/18 10:39:17;;;;;;;4.13;1.10;;;;;;;;;;6046877;29;20725;-86
2022/10/18 10:42:19;;;;;;;3.22;1.10;;;;;;;;;;6054662;29;20071;-85
2022/10/18 10:45:22;;;;;;;5.10;1.30;;;;;;;;;;6017006;29;20041;-85
2022/10/18 10:48:30;;;;;;;6.22;1.20;;;;;;;;;;6032319;29;20053;-85
2022/10/18 10:51:37;;;;;;;5.72;1.23;;;;;;;;;;6048961;29;20044;-86
2022/10/18 10:54:44;;;;;;;6.70;1.67;;;;;;;;;;6034125;29;20036;-85
2022/10/18 10:57:54;;;;;;;5.68;1.40;;;;;;;;;;6056372;29;20073;-85
2022/10/18 11:00:56;;;;;;;6.63;2.05;;;;;;;;;;6032734;29;20159;-84
2022/10/18 11:04:02;;;;;;;4.82;1.65;;;;;;;;;;6047917;29;20060;-82
2022/10/18 11:07:26;;;;;;;2.42;1.90;;;;;;;;;;6064906;29;20068;-82
2022/10/18 11:10:32;;;;;;;4.45;1.70;;;;;;;;;;6040547;29;20061;-82
2022/10/18 11:14:00;;;;;;;1.65;1.40;;;;;;;;;;6062554;29;20139;-82
2022/10/18 11:17:41;;;;;;;3.85;1.77;;;;;;;;;;6046716;29;20048;-82
2022/10/18 11:21:02;;;;;;;3.95;1.50;;;;;;;;;;6035459;29;20048;-82
2022/10/18 11:24:14;;;;;;;3.22;1.75;;;;;;;;;;6047018;29;20044;-82
2022/10/18 11:27:36;;;;;;;2.38;1.50;;;;;;;;;;6059212;29;20074;-82
2022/10/18 11:30:50;;;;;;;2.78;1.50;;;;;;;;;;6065582;29;20141;-82
2022/10/18 11:34:24;;;;;;;3.38;1.60;;;;;;;;;;6067134;29;20108;-82
2022/10/18 11:37:37;;;;;;;2.97;1.45;;;;;;;;;;6050992;29;20552;-84
2022/10/18 11:41:03;;;;;;;2.72;1.50;;;;;;;;;;6043329;29;20081;-84
2022/10/18 11:44:27;;;;;;;5.03;1.70;;;;;;;;;;6028512;29;20044;-84
2022/10/18 11:47:31;;;;;;;5.25;1.70;;;;;;;;;;6044238;29;20059;-85
2022/10/18 11:50:51;;;;;;;8.93;2.10;;;;;;;;;;6028868;29;20057;-85
2022/10/18 11:54:00;;;;;;;5.18;1.83;;;;;;;;;;6047485;29;20055;-85
2022/10/18 11:57:35;;;;;;;3.42;1.67;;;;;;;;;;6027575;29;20045;-85
2022/10/18 12:00:43;;;;;;;4.18;1.60;;;;;;;;;;6059720;29;20051;-86
2022/10/18 12:04:16;;;;;;;4.25;1.75;;;;;;;;;;6057302;29;20045;-86
2022/10/18 12:07:21;;;;;;;4.67;1.90;;;;;;;;;;6028366;29;20047;-86
2022/10/18 12:10:31;;;;;;;2.38;1.70;;;;;;;;;;6022473;29;20548;-86
2022/10/18 12:14:01;;;;;;;3.95;1.58;;;;;;;;;;6065576;29;20048;-85
2022/10/18 12:17:11;;;;;;;5.20;1.50;;;;;;;;;;6038806;29;20128;-84
2022/10/18 12:20:38;;;;;;;5.35;1.85;;;;;;;;;;6054035;29;20063;-85
2022/10/18 12:23:58;;;;;;;9.60;2.13;;;;;;;;;;6034878;29;20571;-85
2022/10/18 12:27:01;;;;;;;3.38;1.80;;;;;;;;;;6056645;29;20052;-84
2022/10/18 12:30:06;;;;;;;;;;;;;;;;;;6052312;29;20439;-84
2022/10/18 12:33:12;;;;;;;4.38;1.70;;;;;;;;;;6042493;29;19923;-85
2022/10/18 12:36:48;;;;;;;2.07;1.70;;;;;;;;;;6049280;29;20052;-84
2022/10/18 12:39:56;;;;;;;3.72;1.70;;;;;;;;;;6068271;29;20057;-84
2022/10/18 12:43:20;;;;;;;2.45;1.48;;;;;;;;;;6074470;29;20052;-84
2022/10/18 12:46:21;;;;;;;1.63;1.50;;;;;;;;;;6066859;29;20107;-84
2022/10/18 12:49:30;;;;;;;3.35;1.70;;;;;;;;;;6050505;29;20056;-84
2022/10/18 12:52:35;;;;;;;4.63;1.90;;;;;;;;;;6050429;29;20106;-83
2022/10/18 12:55:39;;;;;;;2.08;1.40;;;;;;;;;;6070035;29;20460;-84
2022/10/18 12:58:41;;;;;;;2.63;1.85;;;;;;;;;;6054522;29;20041;-84
2022/10/18 13:01:49;;;;;;;3.92;1.70;;;;;;;;;;6074712;29;20592;-85
2022/10/18 13:04:50;;;;;;;1.90;1.80;;;;;;;;;;6056992;29;20059;-86
2022/10/18 13:08:19;;;;;;;3.88;1.83;;;;;;;;;;6064603;29;20376;-84
2022/10/18 13:11:34;;;;;;;2.10;1.70;;;;;;;;;;6061281;29;20054;-85
2022/10/18 13:14:55;;;;;;;2.33;1.63;;;;;;;;;;6065739;29;20526;-84
2022/10/18 13:18:20;;;;;;;1.83;1.63;;;;;;;;;;6049769;29;20086;-85
2022/10/18 13:21:28;;;;;;;1.80;1.70;;;;;;;;;;6048872;29;20064;-85
2022/10/18 13:24:41;;;;;;;1.73;1.58;;;;;;;;;;6068793;29;20459;-84
2022/10/18 13:27:58;;;;;;;3.05;1.77;;;;;;;;;;6069248;29;20055;-85
2022/10/18 13:31:17;;;;;;;2.47;1.90;;;;;;;;;;6071300;29;21158;-85
2022/10/18 13:34:36;;;;;;;4.72;1.92;;;;;;;;;;6073882;29;20140;-85
2022/10/18 13:37:38;;;;;;;2.15;1.90;;;;;;;;;;6054260;29;20060;-84
2022/10/18 13:40:40;;;;;;;3.47;2.13;;;;;;;;;;6071325;29;20085;-84
2022/10/18 13:44:12;;;;;;;3.50;1.75;;;;;;;;;;6052584;29;20052;-85
2022/10/18 13:47:31;;;;;;;3.25;2.00;;;;;;;;;;6072867;29;20059;-85
2022/10/18 13:50:37;;;;;;;2.50;1.80;;;;;;;;;;6042723;29;20072;-84
2022/10/18 13:53:38;;;;;;;3.95;2.13;;;;;;;;;;6054265;29;20087;-83
2022/10/18 13:57:14;;;;;;;6.75;2.28;;;;;;;;;;6053391;29;20041;-84
2022/10/18 14:00:42;;;;;;;6.57;2.30;;;;;;;;;;6063501;29;20060;-83
2022/10/18 14:04:14;;;;;;;5.88;2.40;;;;;;;;;;6040798;29;20049;-83
2022/10/18 14:07:18;;;;;;;6.25;2.55;;;;;;;;;;6065946;29;20056;-84
2022/10/18 14:10:27;;;;;;;3.72;2.30;;;;;;;;;;6066997;29;20044;-84
2022/10/18 14:14:11;;;;;;;6.30;2.42;;;;;;;;;;6051023;29;20064;-85
2022/10/18 14:17:41;;;;;;;2.88;2.58;;;;;;;;;;6045975;29;20131;-84
2022/10/18 14:20:50;;;;;;;4.80;2.58;;;;;;;;;;6058479;29;20512;-85
2022/10/18 14:24:20;;;;;;;5.68;2.53;;;;;;;;;;6063673;29;20831;-84
2022/10/18 14:27:28;;;;;;;3.95;2.10;;;;;;;;;;6044744;29;20049;-85
2022/10/18 14:30:29;;;;;;;3.45;2.05;;;;;;;;;;6045671;29;20053;-83
2022/10/18 14:33:37;;;;;;;4.78;2.05;;;;;;;;;;6064521;29;20040;-83
2022/10/18 14:36:40;;;;;;;5.10;2.20;;;;;;;;;;6047617;29;20063;-85
2022/10/18 14:39:41;;;;;;;5.22;2.22;;;;;;;;;;6036965;29;20056;-85
2022/10/18 14:42:47;;;;;;;3.83;2.10;;;;;;;;;;6060670;29;20048;-84
2022/10/18 14:45:50;;;;;;;3.10;2.20;;;;;;;;;;6047151;29;20124;-84
2022/10/18 14:48:51;;;;;;;;;;;;;;;;;;6052950;29;20048;-84
2022/10/18 14:51:56;;;;;;;3.97;2.40;;;;;;;;;;6061982;29;20290;-84
2022/10/18 14:54:58;;;;;;;3.25;2.08;;;;;;;;;;6039857;29;20096;-82
2022/10/18 14:58:01;;;;;;;2.67;2.20;;;;;;;;;;6060001;29;20072;-83
2022/10/18 15:01:03;;;;;;;2.58;2.38;;;;;;;;;;6035017;29;20049;-82
2022/10/18 15:04:10;;;;;;;3.35;2.60;;;;;;;;;;6032986;29;20052;-84
2022/10/18 15:07:15;;;;;;;2.85;2.45;;;;;;;;;;6051722;29;20045;-83
2022/10/18 15:10:20;;;;;;;4.45;2.28;;;;;;;;;;6048051;29;20048;-83
2022/10/18 15:13:23;;;;;;;4.80;2.35;;;;;;;;;;6050625;29;20055;-83
2022/10/18 15:16:28;;;;;;;3.30;2.20;;;;;;;;;;6060557;29;21880;-83
2022/10/18 15:19:41;;;;;;;4.18;2.40;;;;;;;;;;6064359;29;20401;-83
2022/10/18 15:22:45;;;;;;;5.82;2.80;;;;;;;;;;6047496;29;20048;-83
2022/10/18 15:25:47;;;;;;;3.63;2.30;;;;;;;;;;6028653;29;22474;-83
2022/10/18 15:28:52;;;;;;;2.87;2.50;;;;;;;;;;6060163;29;20048;-83
2022/10/18 15:31:54;;;;;;;4.97;2.60;;;;;;;;;;6043130;29;20055;-84
2022/10/18 15:35:14;;;;;;;8.73;2.67;;;;;;;;;;6055358;29;20139;-83
2022/10/18 15:38:19;;;;;;;4.05;3.20;;;;;;;;;;6037850;29;20112;-82
2022/10/18 15:41:47;;;;;;;3.00;2.70;;;;;;;;;;6041229;29;20072;-85
2022/10/18 15:44:50;;;;;;;5.10;3.20;;;;;;;;;;6059716;29;20147;-84
2022/10/18 15:48:08;;;;;;;4.10;3.22;;;;;;;;;;6057899;29;20072;-83
2022/10/18 15:51:46;;;;;;;4.07;3.30;;;;;;;;;;6044744;29;20531;-86
2022/10/18 15:54:48;;;;;;;5.93;3.40;;;;;;;;;;6058986;29;20118;-84
2022/10/18 15:57:50;;;;;;;6.57;3.50;;;;;;;;;;6063808;29;20508;-84
2022/10/18 16:00:56;;;;;;;9.23;3.58;;;;;;;;;;6047648;29;20209;-85
2022/10/18 16:03:59;;;;;;;5.10;3.45;;;;;;;;;;6061814;29;20115;-85
2022/10/18 16:07:01;;;;;;;6.82;3.75;;;;;;;;;;6049655;29;20085;-84
2022/10/18 16:10:12;;;;;;;7.50;3.88;;;;;;;;;;6062731;29;20077;-83
2022/10/18 16:13:13;;;;;;;6.00;4.00;;;;;;;;;;6047836;29;20104;-84
2022/10/18 16:16:24;;;;;;;6.38;3.78;;;;;;;;;;6034668;29;20053;-83
2022/10/18 16:19:26;;;;;;;5.32;3.50;;;;;;;;;;6049183;29;20156;-85
2022/10/18 16:22:27;;;;;;;6.93;3.88;;;;;;;;;;6034203;29;20052;-85
2022/10/18 16:25:33;;;;;;;5.55;3.70;;;;;;;;;;6047339;29;20053;-84
2022/10/18 16:28:35;;;;;;;9.60;4.55;;;;;;;;;;6050274;29;20052;-85
2022/10/18 16:31:37;;;;;;;8.00;5.32;;;;;;;;;;6051280;29;20064;-86
2022/10/18 16:34:39;;;;;;;10.35;4.60;;;;;;;;;;6043278;29;20973;-85
2022/10/18 16:37:43;;;;;;;5.80;4.35;;;;;;;;;;6035552;29;20048;-85
2022/10/18 16:40:45;;;;;;;6.47;4.20;;;;;;;;;;6051414;29;20068;-86
2022/10/18 16:43:48;;;;;;;7.18;4.63;;;;;;;;;;6057342;29;20075;-85
2022/10/18 16:46:50;;;;;;;6.70;4.80;;;;;;;;;;6068900;29;20413;-86
2022/10/18 16:49:56;;;;;;;8.80;4.93;;;;;;;;;;6045563;29;20041;-86
2022/10/18 16:52:57;;;;;;;10.52;6.55;;;;;;;;;;6060593;29;20059;-85
2022/10/18 16:56:01;;;;;;;11.77;6.40;;;;;;;;;;6055393;29;20874;-87
2022/10/18 16:59:03;;;;;;;10.88;6.57;;;;;;;;;;6038129;29;20059;-87
2022/10/18 17:02:08;;;;;;;10.57;5.65;;;;;;;;;;6070966;29;20056;-85
2022/10/18 17:05:10;;;;;;;9.40;5.20;;;;;;;;;;6043610;29;20059;-87
2022/10/18 17:08:23;;;;;;;9.40;5.32;;;;;;;;;;6028025;29;20048;-85
2022/10/18 17:11:28;;;;;;;11.35;5.45;;;;;;;;;;6055539;29;20586;-87
2022/10/18 17:14:33;;;;;;;12.10;5.35;;;;;;;;;;6074459;29;20132;-87
2022/10/18 17:17:36;;;;;;;10.57;4.90;;;;;;;;;;6063980;29;20492;-85
2022/10/18 17:20:40;;;;;;;11.48;5.38;;;;;;;;;;6056482;29;20053;-85
2022/10/18 17:23:42;;;;;;;9.75;5.20;;;;;;;;;;6033770;29;20047;-87
2022/10/18 17:26:44;;;;;;;10.82;5.82;;;;;;;;;;6052944;29;20063;-86
2022/10/18 17:29:46;;;;;;;8.30;5.28;;;;;;;;;;6046078;29;20057;-85
2022/10/18 17:32:48;;;;;;;10.30;5.53;;;;;;;;;;6048378;29;20048;-85
2022/10/18 17:35:50;;;;;;;12.13;7.63;;;;;;;;;;6050804;29;21401;-85
2022/10/18 17:38:55;;;;;;;15.00;8.30;;;;;;;;;;6067546;29;20507;-85
2022/10/18 17:41:56;;;;;;;18.60;8.32;;;;;;;;;;6054354;29;20104;-85
2022/10/18 17:44:58;;;;;;;15.75;8.23;;;;;;;;;;6035757;29;20144;-85
2022/10/18 17:48:00;;;;;;;20.83;11.05;;;;;;;;;;6055757;29;20052;-85
2022/10/18 17:51:15;;;;;;;12.23;7.15;;;;;;;;;;6032710;29;20131;-86
2022/10/18 17:54:17;;;;;;;14.60;7.22;;;;;;;;;;6036134;29;20047;-87
2022/10/18 17:57:18;;;;;;;13.63;6.90;;;;;;;;;;6034995;29;20060;-85
2022/10/18 18:00:23;;;;;;;12.18;7.13;;;;;;;;;;6037281;29;20071;-85
2022/10/18 18:03:24;;;;;;;11.80;7.15;;;;;;;;;;6037900;29;20086;-85
2022/10/18 18:06:30;;;;;;;13.80;7.85;;;;;;;;;;6049508;29;20064;-86
2022/10/18 18:09:32;;;;;;;16.30;9.80;;;;;;;;;;6047624;29;20056;-85
2022/10/18 18:12:33;;;;;;;15.75;9.73;;;;;;;;;;6050826;29;20048;-86
2022/10/18 18:15:35;;;;;;;13.75;7.68;;;;;;;;;;6044984;29;20163;-86
2022/10/18 18:18:37;;;;;;;12.55;7.45;;;;;;;;;;6050902;29;20049;-85
2022/10/18 18:21:39;;;;;;;12.15;7.63;;;;;;;;;;6052397;29;20058;-85
2022/10/18 18:24:41;;;;;;;16.13;9.07;;;;;;;;;;6052703;29;20048;-83
2022/10/18 18:27:43;;;;;;;12.10;7.30;;;;;;;;;;6038306;29;20494;-83
2022/10/18 18:30:44;;;;;;;13.75;7.88;;;;;;;;;;6033733;29;20068;-83
2022/10/18 18:33:46;;;;;;;22.02;7.30;;;;;;;;;;6053594;29;20127;-83
2022/10/18 18:36:48;;;;;;;13.90;6.93;;;;;;;;;;6054051;29;20056;-83
2022/10/18 18:39:49;;;;;;;13.48;7.78;;;;;;;;;;6062761;29;20134;-84